Allenton, Wisconsin
Current Conditions -  °F | °C
As of 9:15 AM on Saturday 25 Oct 2014 (Local Time) from KETB Reporting Station
Clear Clear  
Wind Chill: 13°   Ceiling: Unl
Heat Index: 13°   Visibility: 10mi
Dew Point:   Wind: 13mph
Humidity: 67%   Direction: 290°WNW
Pressure: 29.9"   Gusts: 23mph
Location:  43.42°N, 88.34°W
Report Text: KETB 251415Z AUTO 29011G20KT 10SM CLR 13/07 A2990 RMK AO2
Loading
Personal Weather Stations






























Interactive Weather Map
Tropical Storm Tracking
New forecast layout! Learn more

10-Day Weather Forecast

Advertisements
Track Severe Weather on mobile